createdAt,value
2018-02-17T00:00:16.956Z,43.65
2018-02-17T00:01:16.838Z,43.67
2018-02-17T00:02:16.897Z,43.67
2018-02-17T00:03:16.850Z,43.63
2018-02-17T00:04:16.823Z,43.67
2018-02-17T00:05:16.832Z,43.66
2018-02-17T00:06:16.883Z,43.66
2018-02-17T00:07:16.884Z,43.67
2018-02-17T00:08:16.824Z,43.66
2018-02-17T00:09:16.805Z,43.63
2018-02-17T00:10:16.838Z,43.61
2018-02-17T00:11:16.853Z,43.67
2018-02-17T00:12:16.825Z,43.62
2018-02-17T00:13:16.939Z,43.64
2018-02-17T00:14:16.838Z,43.62
2018-02-17T00:15:16.813Z,43.65
2018-02-17T00:16:16.971Z,43.68
2018-02-17T00:17:16.836Z,43.65
2018-02-17T00:18:16.897Z,43.64
2018-02-17T00:19:16.878Z,43.64
2018-02-17T00:20:16.929Z,43.68
2018-02-17T00:21:16.861Z,43.66
2018-02-17T00:22:16.944Z,43.65
2018-02-17T00:23:16.839Z,43.64
2018-02-17T00:24:16.826Z,43.68
2018-02-17T00:25:16.843Z,43.66
2018-02-17T00:26:16.820Z,43.66
2018-02-17T00:27:16.940Z,43.69
2018-02-17T00:28:16.896Z,43.66
2018-02-17T00:29:16.929Z,43.65
2018-02-17T00:30:16.860Z,43.71
2018-02-17T00:31:16.839Z,43.67
2018-02-17T00:32:16.885Z,43.65
2018-02-17T00:33:16.943Z,43.7
2018-02-17T00:34:16.872Z,43.61
2018-02-17T00:35:16.837Z,43.68
2018-02-17T00:36:17.219Z,43.61
2018-02-17T00:37:16.859Z,43.62
2018-02-17T00:38:16.840Z,43.63
2018-02-17T00:39:16.820Z,43.63
2018-02-17T00:40:16.836Z,43.65
2018-02-17T00:41:16.866Z,43.62
2018-02-17T00:42:16.972Z,43.63
2018-02-17T00:43:16.862Z,43.62
2018-02-17T00:44:16.829Z,43.64
2018-02-17T00:45:16.832Z,43.65
2018-02-17T00:46:16.869Z,43.67
2018-02-17T00:47:16.837Z,43.67
2018-02-17T00:48:16.857Z,43.67
2018-02-17T00:49:16.841Z,43.63
2018-02-17T00:50:16.926Z,43.65
2018-02-17T00:51:16.841Z,43.63
2018-02-17T00:52:16.872Z,43.63
2018-02-17T00:53:16.836Z,43.66
2018-02-17T00:54:16.979Z,43.68
2018-02-17T00:55:16.895Z,43.66
2018-02-17T00:56:16.917Z,43.65
2018-02-17T00:57:16.826Z,43.69
2018-02-17T00:58:16.836Z,43.69
2018-02-17T00:59:16.847Z,43.67
2018-02-17T01:00:16.838Z,43.69
2018-02-17T01:01:16.849Z,43.67
2018-02-17T01:02:16.844Z,43.64
2018-02-17T01:03:16.886Z,43.65
2018-02-17T01:04:16.833Z,43.64
2018-02-17T01:05:16.834Z,43.64
2018-02-17T01:06:16.837Z,43.64
2018-02-17T01:07:16.831Z,43.66
2018-02-17T01:08:16.918Z,43.67
2018-02-17T01:09:16.865Z,43.68
2018-02-17T01:10:16.944Z,43.7
2018-02-17T01:11:16.936Z,43.7
2018-02-17T01:12:16.877Z,43.72
2018-02-17T01:13:16.838Z,43.7
2018-02-17T01:14:16.845Z,43.69
2018-02-17T01:15:16.847Z,43.72
2018-02-17T01:16:16.905Z,43.74
2018-02-17T01:17:16.852Z,43.7
2018-02-17T01:18:16.898Z,43.73
2018-02-17T01:19:16.854Z,43.73
2018-02-17T01:20:16.907Z,43.74
2018-02-17T01:21:16.849Z,43.7
2018-02-17T01:22:16.844Z,43.71
2018-02-17T01:23:16.869Z,43.73
2018-02-17T01:24:16.831Z,43.71
2018-02-17T01:25:16.903Z,43.72
2018-02-17T01:26:16.936Z,43.75
2018-02-17T01:27:16.839Z,43.77
2018-02-17T01:28:16.849Z,43.73
2018-02-17T01:29:16.840Z,43.71
2018-02-17T01:30:16.834Z,43.72
2018-02-17T01:31:16.898Z,43.79
2018-02-17T01:32:16.867Z,43.75
2018-02-17T01:33:16.960Z,43.77
2018-02-17T01:34:16.896Z,43.78
2018-02-17T01:35:16.858Z,43.8
2018-02-17T01:36:16.828Z,43.8
2018-02-17T01:37:16.836Z,43.8
2018-02-17T01:38:16.898Z,43.82
2018-02-17T01:39:16.883Z,43.81
2018-02-17T01:40:16.842Z,43.78
2018-02-17T01:41:16.842Z,43.79
2018-02-17T01:42:16.928Z,43.79
2018-02-17T01:43:16.848Z,43.76
2018-02-17T01:44:16.845Z,43.76
2018-02-17T01:45:16.903Z,43.8
2018-02-17T01:46:16.840Z,43.81
2018-02-17T01:47:16.887Z,43.75
2018-02-17T01:48:16.838Z,43.76
2018-02-17T01:49:16.851Z,43.76
2018-02-17T01:50:16.825Z,43.76
2018-02-17T01:51:16.853Z,43.76
2018-02-17T01:52:16.846Z,43.77
2018-02-17T01:53:16.839Z,43.76
2018-02-17T01:54:16.821Z,43.78
2018-02-17T01:55:16.905Z,43.75
2018-02-17T01:56:16.909Z,43.84
2018-02-17T01:57:16.849Z,43.76
2018-02-17T01:58:16.837Z,43.81
2018-02-17T01:59:16.830Z,43.78
2018-02-17T02:00:16.842Z,43.76
2018-02-17T02:01:16.860Z,43.8
2018-02-17T02:02:16.849Z,43.78
2018-02-17T02:03:16.825Z,43.76
2018-02-17T02:04:16.893Z,43.82
2018-02-17T02:05:16.848Z,43.77
2018-02-17T02:06:16.838Z,43.78
2018-02-17T02:07:16.848Z,43.8
2018-02-17T02:08:16.837Z,43.77
2018-02-17T02:09:16.854Z,43.78
2018-02-17T02:10:16.839Z,43.78
2018-02-17T02:11:16.932Z,43.78
2018-02-17T02:12:16.864Z,43.74
2018-02-17T02:13:16.839Z,43.77
2018-02-17T02:14:16.836Z,43.81
2018-02-17T02:15:16.837Z,43.77
2018-02-17T02:16:16.826Z,43.85
2018-02-17T02:17:16.847Z,43.79
2018-02-17T02:18:16.838Z,43.75
2018-02-17T02:19:16.827Z,43.81
2018-02-17T02:20:16.846Z,43.77
2018-02-17T02:21:16.836Z,43.8
2018-02-17T02:22:16.850Z,43.8
2018-02-17T02:23:16.829Z,43.81
2018-02-17T02:24:16.904Z,43.76
2018-02-17T02:25:16.919Z,43.8
2018-02-17T02:26:16.828Z,43.78
2018-02-17T02:27:16.976Z,43.8
2018-02-17T02:28:16.844Z,43.78
2018-02-17T02:29:16.900Z,43.79
2018-02-17T02:30:17.027Z,43.76
2018-02-17T02:31:16.840Z,43.78
2018-02-17T02:32:16.873Z,43.81
2018-02-17T02:33:16.921Z,43.78
2018-02-17T02:34:16.863Z,43.78
2018-02-17T02:35:16.882Z,43.81
2018-02-17T02:36:16.839Z,43.78
2018-02-17T02:37:16.855Z,43.83
2018-02-17T02:38:16.847Z,43.81
2018-02-17T02:39:16.869Z,43.85
2018-02-17T02:40:16.840Z,43.79
2018-02-17T02:41:16.831Z,43.79
2018-02-17T02:42:16.887Z,43.8
2018-02-17T02:43:16.844Z,43.81
2018-02-17T02:44:16.882Z,43.8
2018-02-17T02:45:16.854Z,43.77
2018-02-17T02:46:16.812Z,43.8
2018-02-17T02:47:16.860Z,43.77
2018-02-17T02:48:16.936Z,43.76
2018-02-17T02:49:16.829Z,43.81
2018-02-17T02:50:16.828Z,43.79
2018-02-17T02:51:16.951Z,43.83
2018-02-17T02:52:16.900Z,43.81
2018-02-17T02:53:16.878Z,43.77
2018-02-17T02:54:16.846Z,43.81
2018-02-17T02:55:16.853Z,43.81
2018-02-17T02:56:16.868Z,43.82
2018-02-17T02:57:16.889Z,43.8
2018-02-17T02:58:16.840Z,43.82
2018-02-17T02:59:16.901Z,43.78
2018-02-17T03:00:16.836Z,43.79
2018-02-17T03:01:16.857Z,43.8
2018-02-17T03:02:16.832Z,43.82
2018-02-17T03:03:16.858Z,43.82
2018-02-17T03:04:16.864Z,43.84
2018-02-17T03:05:16.875Z,43.83
2018-02-17T03:06:16.819Z,43.87
2018-02-17T03:07:16.820Z,43.83
2018-02-17T03:08:16.822Z,43.84
2018-02-17T03:09:16.848Z,43.82
2018-02-17T03:10:16.816Z,43.86
2018-02-17T03:11:16.937Z,43.84
2018-02-17T03:12:16.915Z,43.83
2018-02-17T03:13:16.939Z,43.83
2018-02-17T03:14:16.834Z,43.84
2018-02-17T03:15:16.843Z,43.85
2018-02-17T03:16:16.844Z,43.88
2018-02-17T03:17:16.841Z,43.85
2018-02-17T03:18:16.804Z,43.81
2018-02-17T03:19:16.815Z,43.83
2018-02-17T03:20:16.827Z,43.81
2018-02-17T03:21:16.901Z,43.87
2018-02-17T03:22:16.860Z,43.84
2018-02-17T03:23:16.914Z,43.81
2018-02-17T03:24:16.818Z,43.83
2018-02-17T03:25:16.821Z,43.83
2018-02-17T03:26:16.833Z,43.84
2018-02-17T03:27:16.835Z,43.86
2018-02-17T03:28:16.828Z,43.8
2018-02-17T03:29:16.906Z,43.82
2018-02-17T03:30:16.831Z,43.85
2018-02-17T03:31:16.893Z,43.84
2018-02-17T03:32:16.862Z,43.84
2018-02-17T03:33:16.838Z,43.86
2018-02-17T03:34:16.880Z,43.83
2018-02-17T03:35:16.826Z,43.85
2018-02-17T03:36:16.804Z,43.82
2018-02-17T03:37:17.043Z,43.81
2018-02-17T03:38:16.804Z,43.86
2018-02-17T03:39:16.811Z,43.83
2018-02-17T03:40:16.853Z,43.89
2018-02-17T03:41:16.798Z,43.82
2018-02-17T03:42:16.833Z,43.81
2018-02-17T03:43:16.887Z,43.84
2018-02-17T03:44:16.863Z,43.83
2018-02-17T03:45:16.845Z,43.81
2018-02-17T03:46:16.799Z,43.82
2018-02-17T03:47:16.804Z,43.81
2018-02-17T03:48:16.836Z,43.83
2018-02-17T03:49:16.874Z,43.82
2018-02-17T03:50:16.869Z,43.83
2018-02-17T03:51:16.827Z,43.8
2018-02-17T03:52:16.824Z,43.82
2018-02-17T03:53:16.806Z,43.86
2018-02-17T03:54:16.875Z,43.83
2018-02-17T03:55:16.811Z,43.87
2018-02-17T03:56:16.828Z,43.86
2018-02-17T03:57:16.789Z,43.86
2018-02-17T03:58:16.818Z,43.81
2018-02-17T03:59:16.839Z,43.83
2018-02-17T04:00:16.889Z,43.82
2018-02-17T04:01:16.851Z,43.85
2018-02-17T04:02:16.810Z,43.82
2018-02-17T04:03:16.828Z,43.82
2018-02-17T04:04:16.834Z,43.85
2018-02-17T04:05:16.790Z,43.83
2018-02-17T04:06:16.823Z,43.79
2018-02-17T04:07:16.855Z,43.83
2018-02-17T04:08:16.792Z,43.82
2018-02-17T04:09:16.801Z,43.84
2018-02-17T04:10:16.790Z,43.81
2018-02-17T04:11:16.800Z,43.88
2018-02-17T04:12:17.084Z,43.88
2018-02-17T04:13:16.828Z,43.83
2018-02-17T04:14:16.825Z,43.85
2018-02-17T04:15:16.788Z,43.85
2018-02-17T04:16:16.812Z,43.84
2018-02-17T04:17:16.799Z,43.86
2018-02-17T04:18:16.797Z,43.85
2018-02-17T04:19:16.805Z,43.88
2018-02-17T04:20:16.821Z,43.85
2018-02-17T04:21:16.790Z,43.82
2018-02-17T04:22:16.802Z,43.81
2018-02-17T04:23:16.813Z,43.85
2018-02-17T04:24:16.787Z,43.89
2018-02-17T04:25:16.807Z,43.88
2018-02-17T04:26:16.823Z,43.88
2018-02-17T04:27:16.797Z,43.84
2018-02-17T04:28:16.802Z,43.89
2018-02-17T04:29:16.851Z,43.87
2018-02-17T04:30:16.781Z,43.85
2018-02-17T04:31:16.783Z,43.84
2018-02-17T04:32:16.808Z,43.83
2018-02-17T04:33:16.778Z,43.87
2018-02-17T04:34:16.849Z,43.86
2018-02-17T04:35:16.784Z,43.85
2018-02-17T04:36:16.764Z,43.82
2018-02-17T04:37:16.790Z,43.85
2018-02-17T04:38:16.788Z,43.86
2018-02-17T04:39:16.810Z,43.84
2018-02-17T04:40:16.792Z,43.87
2018-02-17T04:41:16.786Z,43.83
2018-02-17T04:42:16.770Z,43.88
2018-02-17T04:43:16.787Z,43.88
2018-02-17T04:44:16.787Z,43.88
2018-02-17T04:45:16.859Z,43.85
2018-02-17T04:46:16.787Z,43.89
2018-02-17T04:47:16.786Z,43.85
2018-02-17T04:48:16.880Z,43.84
2018-02-17T04:49:16.782Z,43.83
2018-02-17T04:50:16.779Z,43.82
2018-02-17T04:51:16.769Z,43.76
2018-02-17T04:52:16.770Z,43.79
2018-02-17T04:53:16.770Z,43.79
2018-02-17T04:54:16.779Z,43.74
2018-02-17T04:55:16.827Z,43.71
2018-02-17T04:56:16.831Z,43.74
2018-02-17T04:57:16.803Z,43.8
2018-02-17T04:58:16.769Z,43.85
2018-02-17T04:59:16.783Z,43.86
2018-02-17T05:00:16.778Z,43.81
2018-02-17T05:01:16.762Z,43.83
2018-02-17T05:02:16.758Z,43.87
2018-02-17T05:03:16.778Z,43.93
2018-02-17T05:04:17.070Z,43.94
2018-02-17T05:05:16.843Z,43.91
2018-02-17T05:06:16.777Z,43.95
2018-02-17T05:07:16.832Z,43.97
2018-02-17T05:08:16.810Z,43.96
2018-02-17T05:09:16.798Z,44.02
2018-02-17T05:10:16.776Z,44.03
2018-02-17T05:11:16.771Z,44.11
2018-02-17T05:12:16.931Z,44.12
2018-02-17T05:13:16.772Z,44.09
2018-02-17T05:14:16.775Z,44.12
2018-02-17T05:15:16.782Z,44.08
2018-02-17T05:16:16.768Z,44.07
2018-02-17T05:17:16.858Z,44.1
2018-02-17T05:18:16.804Z,44.07
2018-02-17T05:19:16.757Z,44.08
2018-02-17T05:20:16.755Z,44
2018-02-17T05:21:16.891Z,43.99
2018-02-17T05:22:16.821Z,43.96
2018-02-17T05:23:16.771Z,43.92
2018-02-17T05:24:16.758Z,43.88
2018-02-17T05:25:16.761Z,43.92
2018-02-17T05:26:16.770Z,43.88
2018-02-17T05:27:16.748Z,43.92
2018-02-17T05:28:17.087Z,43.88
2018-02-17T05:29:16.750Z,43.91
2018-02-17T05:30:16.965Z,43.89
2018-02-17T05:31:16.774Z,43.93
2018-02-17T05:32:16.750Z,43.91
2018-02-17T05:33:16.773Z,43.92
2018-02-17T05:34:16.796Z,43.91
2018-02-17T05:35:16.979Z,43.92
2018-02-17T05:36:16.837Z,43.97
2018-02-17T05:37:16.785Z,43.94
2018-02-17T05:38:17.199Z,43.95
2018-02-17T05:39:16.758Z,43.97
2018-02-17T05:40:16.748Z,43.96
2018-02-17T05:41:16.767Z,43.98
2018-02-17T05:42:16.764Z,43.92
2018-02-17T05:43:16.754Z,43.99
2018-02-17T05:44:16.755Z,43.9
2018-02-17T05:45:16.762Z,43.94
2018-02-17T05:46:16.743Z,44.01
2018-02-17T05:47:16.747Z,43.97
2018-02-17T05:48:16.951Z,43.94
2018-02-17T05:49:16.802Z,43.97
2018-02-17T05:50:16.748Z,43.98
2018-02-17T05:51:16.761Z,43.96
2018-02-17T05:52:16.746Z,43.96
2018-02-17T05:53:16.742Z,43.97
2018-02-17T05:54:16.739Z,43.93
2018-02-17T05:55:16.753Z,43.97
2018-02-17T05:56:16.754Z,43.99
2018-02-17T05:57:16.791Z,43.94
2018-02-17T05:58:16.767Z,43.98
2018-02-17T05:59:16.926Z,43.98
2018-02-17T06:00:16.752Z,43.95
2018-02-17T06:01:16.765Z,43.96
2018-02-17T06:02:16.756Z,43.9
2018-02-17T06:03:16.888Z,43.95
2018-02-17T06:04:16.744Z,43.92
2018-02-17T06:05:16.744Z,43.91
2018-02-17T06:06:16.750Z,43.98
2018-02-17T06:07:16.733Z,43.93
2018-02-17T06:08:16.740Z,43.91
2018-02-17T06:09:16.741Z,43.97
2018-02-17T06:10:16.853Z,43.9
2018-02-17T06:11:16.755Z,43.92
2018-02-17T06:12:16.730Z,43.84
2018-02-17T06:13:16.732Z,43.91
2018-02-17T06:14:16.723Z,43.83
2018-02-17T06:15:16.739Z,43.92
2018-02-17T06:16:16.734Z,43.87
2018-02-17T06:17:16.741Z,43.91
2018-02-17T06:18:16.730Z,43.84
2018-02-17T06:19:16.766Z,43.85
2018-02-17T06:20:16.748Z,43.87
2018-02-17T06:21:16.747Z,43.82
2018-02-17T06:22:16.745Z,43.83
2018-02-17T06:23:16.740Z,43.81
2018-02-17T06:24:16.735Z,43.85
2018-02-17T06:25:16.976Z,43.81
2018-02-17T06:26:16.732Z,43.82
2018-02-17T06:27:16.728Z,43.82
2018-02-17T06:28:16.745Z,43.85
2018-02-17T06:29:16.743Z,43.77
2018-02-17T06:30:16.708Z,43.81
2018-02-17T06:31:16.771Z,43.82
2018-02-17T06:32:16.883Z,43.82
2018-02-17T06:33:16.894Z,43.78
2018-02-17T06:34:16.774Z,43.81
2018-02-17T06:35:16.725Z,43.81
2018-02-17T06:36:16.719Z,43.8
2018-02-17T06:37:16.726Z,43.77
2018-02-17T06:38:17.118Z,43.78
2018-02-17T06:39:17.031Z,43.79
2018-02-17T06:40:16.738Z,43.76
2018-02-17T06:41:16.934Z,43.77
2018-02-17T06:42:16.772Z,43.76
2018-02-17T06:43:16.761Z,43.71
2018-02-17T06:44:16.711Z,43.71
2018-02-17T06:45:16.753Z,43.7
2018-02-17T06:46:16.717Z,43.71
2018-02-17T06:47:16.730Z,43.72
2018-02-17T06:48:16.743Z,43.7
2018-02-17T06:49:16.762Z,43.72
2018-02-17T06:50:16.758Z,43.74
2018-02-17T06:51:16.853Z,43.69
2018-02-17T06:52:16.774Z,43.68
2018-02-17T06:53:16.809Z,43.69
2018-02-17T06:54:16.745Z,43.68
2018-02-17T06:55:16.892Z,43.69
2018-02-17T06:56:16.907Z,43.66
2018-02-17T06:57:16.725Z,43.72
2018-02-17T06:58:16.709Z,43.72
2018-02-17T06:59:16.719Z,43.69
2018-02-17T07:00:16.711Z,43.73
2018-02-17T07:01:16.698Z,43.68
2018-02-17T07:02:17.148Z,43.71
2018-02-17T07:03:16.707Z,43.65
2018-02-17T07:04:16.934Z,43.61
2018-02-17T07:05:16.826Z,43.67
2018-02-17T07:06:16.743Z,43.67
2018-02-17T07:07:16.715Z,43.69
2018-02-17T07:08:16.719Z,43.63
2018-02-17T07:09:16.719Z,43.67
2018-02-17T07:10:16.722Z,43.65
2018-02-17T07:11:16.910Z,43.63
2018-02-17T07:12:17.003Z,43.6
2018-02-17T07:13:16.818Z,43.6
2018-02-17T07:14:16.706Z,43.65
2018-02-17T07:15:16.714Z,43.59
2018-02-17T07:16:16.702Z,43.63
2018-02-17T07:17:16.704Z,43.57
2018-02-17T07:18:16.706Z,43.6
2018-02-17T07:19:16.707Z,43.6
2018-02-17T07:20:16.725Z,43.57
2018-02-17T07:21:16.872Z,43.56
2018-02-17T07:22:16.696Z,43.56
2018-02-17T07:23:16.690Z,43.62
2018-02-17T07:24:16.724Z,43.56
2018-02-17T07:25:16.718Z,43.56
2018-02-17T07:26:16.735Z,43.55
2018-02-17T07:27:16.927Z,43.55
2018-02-17T07:28:16.737Z,43.59
2018-02-17T07:29:16.870Z,43.55
2018-02-17T07:30:16.870Z,43.56
2018-02-17T07:31:16.704Z,43.56
2018-02-17T07:32:17.161Z,43.53
2018-02-17T07:33:16.710Z,43.53
2018-02-17T07:34:16.706Z,43.52
2018-02-17T07:35:16.701Z,43.59
2018-02-17T07:36:16.726Z,43.53
2018-02-17T07:37:16.742Z,43.5
2018-02-17T07:38:16.695Z,43.48
2018-02-17T07:39:16.708Z,43.5
2018-02-17T07:40:16.701Z,43.5
2018-02-17T07:41:16.701Z,43.49
2018-02-17T07:42:16.740Z,43.48
2018-02-17T07:43:16.701Z,43.54
2018-02-17T07:44:16.688Z,43.53
2018-02-17T07:45:16.701Z,43.5
2018-02-17T07:46:16.695Z,43.51
2018-02-17T07:47:16.717Z,43.49
2018-02-17T07:48:16.701Z,43.48
2018-02-17T07:49:16.839Z,43.46
2018-02-17T07:50:16.732Z,43.49
2018-02-17T07:51:16.701Z,43.44
2018-02-17T07:52:16.741Z,43.46
2018-02-17T07:53:16.725Z,43.43
2018-02-17T07:54:16.847Z,43.48
2018-02-17T07:55:16.701Z,43.48
2018-02-17T07:56:16.708Z,43.4
2018-02-17T07:57:16.702Z,43.39
2018-02-17T07:58:16.725Z,43.45
2018-02-17T07:59:16.828Z,43.44
2018-02-17T08:00:16.696Z,43.44
2018-02-17T08:01:16.926Z,43.38
2018-02-17T08:02:16.550Z,43.43
2018-02-17T08:03:16.697Z,43.43
2018-02-17T08:04:16.873Z,43.36
2018-02-17T08:05:16.697Z,43.37
2018-02-17T08:06:16.698Z,43.4
2018-02-17T08:07:16.750Z,43.4
2018-02-17T08:08:16.720Z,43.36
2018-02-17T08:09:16.712Z,43.36
2018-02-17T08:10:16.871Z,43.4
2018-02-17T08:11:16.711Z,43.43
2018-02-17T08:12:16.677Z,43.4
2018-02-17T08:13:16.690Z,43.33
2018-02-17T08:14:16.684Z,43.4
2018-02-17T08:15:16.709Z,43.36
2018-02-17T08:16:16.786Z,43.31
2018-02-17T08:17:16.914Z,43.35
2018-02-17T08:18:16.723Z,43.29
2018-02-17T08:19:16.853Z,43.34
2018-02-17T08:20:16.800Z,43.33
2018-02-17T08:21:16.875Z,43.35
2018-02-17T08:22:16.708Z,43.32
2018-02-17T08:23:16.739Z,43.34
2018-02-17T08:24:16.707Z,43.38
2018-02-17T08:25:16.848Z,43.34
2018-02-17T08:26:16.845Z,43.35
2018-02-17T08:27:16.770Z,43.33
2018-02-17T08:28:16.750Z,43.29
2018-02-17T08:29:17.085Z,43.35
2018-02-17T08:30:16.713Z,43.29
2018-02-17T08:31:16.702Z,43.29
2018-02-17T08:32:16.730Z,43.36
2018-02-17T08:33:16.717Z,43.27
2018-02-17T08:34:16.690Z,43.33
2018-02-17T08:35:16.791Z,43.28
2018-02-17T08:36:16.697Z,43.37
2018-02-17T08:37:16.670Z,43.36
2018-02-17T08:38:17.071Z,43.31
2018-02-17T08:39:16.824Z,43.31
2018-02-17T08:40:16.729Z,43.31
2018-02-17T08:41:16.685Z,43.29
2018-02-17T08:42:16.826Z,43.29
2018-02-17T08:43:16.897Z,43.31
2018-02-17T08:44:16.712Z,43.37
2018-02-17T08:45:16.691Z,43.29
2018-02-17T08:46:16.951Z,43.34
2018-02-17T08:47:16.680Z,43.29
2018-02-17T08:48:16.706Z,43.26
2018-02-17T08:49:16.678Z,43.28
2018-02-17T08:50:16.688Z,43.19
2018-02-17T08:51:16.683Z,43.26
2018-02-17T08:52:16.679Z,43.25
2018-02-17T08:53:16.692Z,43.25
2018-02-17T08:54:16.873Z,43.24
2018-02-17T08:55:16.838Z,43.23
2018-02-17T08:56:16.687Z,43.32
2018-02-17T08:57:16.891Z,43.29
2018-02-17T08:58:16.712Z,43.26
2018-02-17T08:59:16.682Z,43.19
2018-02-17T09:00:16.679Z,43.23
2018-02-17T09:01:16.693Z,43.25
2018-02-17T09:02:16.714Z,43.27
2018-02-17T09:03:16.692Z,43.21
2018-02-17T09:04:16.680Z,43.27
2018-02-17T09:05:16.967Z,43.19
2018-02-17T09:06:16.787Z,43.18
2018-02-17T09:07:16.697Z,43.16
2018-02-17T09:08:16.699Z,43.21
2018-02-17T09:09:16.678Z,43.25
2018-02-17T09:10:16.911Z,43.26
2018-02-17T09:11:17.224Z,43.29
2018-02-17T09:12:16.659Z,43.24
2018-02-17T09:13:16.946Z,43.19
2018-02-17T09:14:16.812Z,43.19
2018-02-17T09:15:16.686Z,43.19
2018-02-17T09:16:16.667Z,43.19
2018-02-17T09:17:16.674Z,43.24
2018-02-17T09:18:16.804Z,43.18
2018-02-17T09:19:16.665Z,43.1
2018-02-17T09:20:16.659Z,43.23
2018-02-17T09:21:16.662Z,43.2
2018-02-17T09:22:16.672Z,43.17
2018-02-17T09:23:16.906Z,43.22
2018-02-17T09:24:16.714Z,43.27
2018-02-17T09:25:16.676Z,43.17
2018-02-17T09:26:16.764Z,43.12
2018-02-17T09:27:16.709Z,43.12
2018-02-17T09:28:16.680Z,43.19
2018-02-17T09:29:16.858Z,43.12
2018-02-17T09:30:16.826Z,43.14
2018-02-17T09:31:16.889Z,43.16
2018-02-17T09:32:16.869Z,43.2
2018-02-17T09:33:16.690Z,43.15
2018-02-17T09:34:16.945Z,43.07
2018-02-17T09:35:16.735Z,43.21
2018-02-17T09:36:16.693Z,43.2
2018-02-17T09:37:16.709Z,43.13
2018-02-17T09:38:16.668Z,43.11
2018-02-17T09:39:16.803Z,43.16
2018-02-17T09:40:16.691Z,43.16
2018-02-17T09:41:16.680Z,43.17
2018-02-17T09:42:16.786Z,43.15
2018-02-17T09:43:16.683Z,43.14
2018-02-17T09:44:16.803Z,43.1
2018-02-17T09:45:16.673Z,43.11
2018-02-17T09:46:16.645Z,43.14
2018-02-17T09:47:16.750Z,43.12
2018-02-17T09:48:16.685Z,43.1
2018-02-17T09:49:16.655Z,43.1
2018-02-17T09:50:16.703Z,43.15
2018-02-17T09:51:16.670Z,43.14
2018-02-17T09:52:16.648Z,43.07
2018-02-17T09:53:16.713Z,43.13
2018-02-17T09:54:16.706Z,43.1
2018-02-17T09:55:16.674Z,43.09
2018-02-17T09:56:16.647Z,43.13
2018-02-17T09:57:16.838Z,43.1
2018-02-17T09:58:16.678Z,43.34
2018-02-17T09:59:16.667Z,43.29
2018-02-17T10:00:16.681Z,43.29
2018-02-17T10:01:16.674Z,43.32
2018-02-17T10:02:16.844Z,43.55
2018-02-17T10:03:16.710Z,43.72
2018-02-17T10:04:16.656Z,43.86
2018-02-17T10:05:16.786Z,44.05
2018-02-17T10:06:16.729Z,44.27
2018-02-17T10:07:16.659Z,43.92
2018-02-17T10:08:16.673Z,44.12
2018-02-17T10:09:16.649Z,43.97
2018-02-17T10:10:16.876Z,44.38
2018-02-17T10:11:16.748Z,43.87
2018-02-17T10:12:16.655Z,43.59
2018-02-17T10:13:16.703Z,43.57
2018-02-17T10:14:16.669Z,43.47
2018-02-17T10:15:16.735Z,43.53
2018-02-17T10:16:16.798Z,43.47
2018-02-17T10:17:16.941Z,43.47
2018-02-17T10:18:16.704Z,43.45
2018-02-17T10:19:16.729Z,43.48
2018-02-17T10:20:16.870Z,43.49
2018-02-17T10:21:16.831Z,43.41
2018-02-17T10:22:16.799Z,43.44
2018-02-17T10:23:16.666Z,43.44
2018-02-17T10:24:16.710Z,43.4
2018-02-17T10:25:16.729Z,43.4
2018-02-17T10:26:16.683Z,43.43
2018-02-17T10:27:16.653Z,43.37
2018-02-17T10:28:16.651Z,43.38
2018-02-17T10:29:16.702Z,43.38
2018-02-17T10:30:16.665Z,43.61
2018-02-17T10:31:16.733Z,42.6
2018-02-17T10:32:16.879Z,40.67
2018-02-17T10:33:16.762Z,41.4
2018-02-17T10:34:16.709Z,41.69
2018-02-17T10:35:16.683Z,41.97
2018-02-17T10:36:16.679Z,42.26
2018-02-17T10:37:16.777Z,42.28
2018-02-17T10:38:16.817Z,42.42
2018-02-17T10:39:16.760Z,42.55
2018-02-17T10:40:16.669Z,42.23
2018-02-17T10:41:16.642Z,42.33
2018-02-17T10:42:16.695Z,42.66
2018-02-17T10:43:16.645Z,42.64
2018-02-17T10:44:16.629Z,42.85
2018-02-17T10:45:16.751Z,42.91
2018-02-17T10:46:16.639Z,43.09
2018-02-17T10:47:16.784Z,42.88
2018-02-17T10:48:16.674Z,42.87
2018-02-17T10:49:16.701Z,43.02
2018-02-17T10:50:16.644Z,43.11
2018-02-17T10:51:16.757Z,43.13
2018-02-17T10:52:16.631Z,43.15
2018-02-17T10:53:16.864Z,43.18
2018-02-17T10:54:16.684Z,43.24
2018-02-17T10:55:16.651Z,43.47
2018-02-17T10:56:16.645Z,42.85
2018-02-17T10:57:16.663Z,42.62
2018-02-17T10:58:16.676Z,42.62
2018-02-17T10:59:16.714Z,42.68
2018-02-17T11:00:16.655Z,42.72
2018-02-17T11:01:16.655Z,42.72
2018-02-17T11:02:16.642Z,42.71
2018-02-17T11:03:16.648Z,42.72
2018-02-17T11:04:16.650Z,42.77
2018-02-17T11:05:16.660Z,42.93
2018-02-17T11:06:16.939Z,42.5
2018-02-17T11:07:16.647Z,41.55
2018-02-17T11:08:16.635Z,41.06
2018-02-17T11:09:16.705Z,40.7
2018-02-17T11:10:16.903Z,40.93
2018-02-17T11:11:16.771Z,41.06
2018-02-17T11:12:16.960Z,40.91
2018-02-17T11:13:16.634Z,40.99
2018-02-17T11:14:16.839Z,41.24
2018-02-17T11:15:16.673Z,41.21
2018-02-17T11:16:16.662Z,41.44
2018-02-17T11:17:16.718Z,41.47
2018-02-17T11:18:16.741Z,41.42
2018-02-17T11:19:16.636Z,42.13
2018-02-17T11:20:16.652Z,42.25
2018-02-17T11:21:16.668Z,42.32
2018-02-17T11:22:16.648Z,42.48
2018-02-17T11:23:16.648Z,42.67
2018-02-17T11:24:16.633Z,42.5
2018-02-17T11:25:16.631Z,42.55
2018-02-17T11:26:16.680Z,42.56
2018-02-17T11:27:16.705Z,42.86
2018-02-17T11:28:16.634Z,42.73
2018-02-17T11:29:16.633Z,42.66
2018-02-17T11:30:16.692Z,42.88
2018-02-17T11:31:16.671Z,42.84
2018-02-17T11:32:16.640Z,42.71
2018-02-17T11:33:16.625Z,42.74
2018-02-17T11:34:16.688Z,42.65
2018-02-17T11:35:16.619Z,42.64
2018-02-17T11:36:16.652Z,43.47
2018-02-17T11:37:16.620Z,42.62
2018-02-17T11:38:16.657Z,42.55
2018-02-17T11:39:16.649Z,42.84
2018-02-17T11:40:16.644Z,42.76
2018-02-17T11:41:16.630Z,42.71
2018-02-17T11:42:16.635Z,42.67
2018-02-17T11:43:16.674Z,42.75
2018-02-17T11:44:16.700Z,42.75
2018-02-17T11:45:16.631Z,42.86
2018-02-17T11:46:17.091Z,42.8
2018-02-17T11:47:16.623Z,42.84
2018-02-17T11:48:16.618Z,42.94
2018-02-17T11:49:16.626Z,42.86
2018-02-17T11:50:16.636Z,42.88
2018-02-17T11:51:16.650Z,42.93
2018-02-17T11:52:16.618Z,43.26
2018-02-17T11:53:16.638Z,43.13
2018-02-17T11:54:16.638Z,43.19
2018-02-17T11:55:16.632Z,43.18
2018-02-17T11:56:16.651Z,43.41
2018-02-17T11:57:16.643Z,43.05
2018-02-17T11:58:16.637Z,43.13
2018-02-17T11:59:16.620Z,43.1
2018-02-17T12:00:16.667Z,43.07
2018-02-17T12:01:16.659Z,43.2
2018-02-17T12:02:16.645Z,43.1
2018-02-17T12:03:16.617Z,43.39
2018-02-17T12:04:16.682Z,43.52
2018-02-17T12:05:16.628Z,43.69
2018-02-17T12:06:16.641Z,43.44
2018-02-17T12:07:16.607Z,43.35
2018-02-17T12:08:16.663Z,43.28
2018-02-17T12:09:16.650Z,43.28
2018-02-17T12:10:16.626Z,43.42
2018-02-17T12:11:16.693Z,43.39
2018-02-17T12:12:16.642Z,43.16
2018-02-17T12:13:16.642Z,42.12
2018-02-17T12:14:16.696Z,42.39
2018-02-17T12:15:16.658Z,42.4
2018-02-17T12:16:16.650Z,42.83
2018-02-17T12:17:16.654Z,43.01
2018-02-17T12:18:16.685Z,43.2
2018-02-17T12:19:16.720Z,43.22
2018-02-17T12:20:16.650Z,43.24
2018-02-17T12:21:16.723Z,43
2018-02-17T12:22:16.629Z,42.91
2018-02-17T12:23:16.836Z,42.79
2018-02-17T12:24:16.654Z,43
2018-02-17T12:25:16.669Z,43.34
2018-02-17T12:26:16.635Z,43.61
2018-02-17T12:27:16.665Z,42.91
2018-02-17T12:28:16.704Z,43.24
2018-02-17T12:29:16.633Z,43.19
2018-02-17T12:30:16.627Z,43.28
2018-02-17T12:31:16.753Z,43.35
2018-02-17T12:32:16.655Z,43.34
2018-02-17T12:33:16.639Z,43.36
2018-02-17T12:34:16.737Z,43.28
2018-02-17T12:35:16.650Z,43.24
2018-02-17T12:36:16.637Z,43.23
2018-02-17T12:37:16.620Z,43.17
2018-02-17T12:38:16.687Z,43.28
2018-02-17T12:39:16.640Z,43.31
2018-02-17T12:40:16.647Z,43.23
2018-02-17T12:41:16.643Z,43.21
2018-02-17T12:42:16.641Z,43.16
2018-02-17T12:43:16.643Z,43.28
2018-02-17T12:44:16.658Z,43.12
2018-02-17T12:45:16.642Z,43.15
2018-02-17T12:46:16.688Z,43.25
2018-02-17T12:47:16.621Z,43.25
2018-02-17T12:48:16.638Z,43.11
2018-02-17T12:49:16.625Z,43.04
2018-02-17T12:50:16.618Z,43.12
2018-02-17T12:51:16.638Z,43.43
2018-02-17T12:52:16.626Z,43.32
2018-02-17T12:53:16.618Z,43.34
2018-02-17T12:54:16.689Z,43.4
2018-02-17T12:55:16.673Z,43.38